createdAt,value
2018-07-28T00:00:17.000Z,9.97
2018-07-28T00:02:43.856Z,8.00
2018-07-28T00:05:10.732Z,8.00
2018-07-28T00:07:37.934Z,8.13
2018-07-28T00:10:04.675Z,7.03
2018-07-28T00:12:31.617Z,8.23
2018-07-28T00:14:58.415Z,9.07
2018-07-28T00:17:25.228Z,7.00
2018-07-28T00:19:52.100Z,7.53
2018-07-28T00:22:18.940Z,7.97
2018-07-28T00:24:45.790Z,8.05
2018-07-28T00:27:12.941Z,7.65
2018-07-28T00:29:39.850Z,7.50
2018-07-28T00:32:06.720Z,6.78
2018-07-28T00:34:33.544Z,7.22
2018-07-28T00:37:00.774Z,7.03
2018-07-28T00:39:27.643Z,7.30
2018-07-28T00:41:54.495Z,8.10
2018-07-28T00:44:21.443Z,6.60
2018-07-28T00:46:48.241Z,7.30
2018-07-28T00:49:15.199Z,7.17
2018-07-28T00:51:42.042Z,6.70
2018-07-28T00:54:09.515Z,15.00
2018-07-28T00:56:36.335Z,8.63
2018-07-28T00:59:03.190Z,6.28
2018-07-28T01:01:30.022Z,9.13
2018-07-28T01:03:56.913Z,6.80
2018-07-28T01:06:23.716Z,7.10
2018-07-28T01:08:50.569Z,7.20
2018-07-28T01:11:17.391Z,9.63
2018-07-28T01:13:44.230Z,7.80
2018-07-28T01:16:11.053Z,6.85
2018-07-28T01:18:37.960Z,8.53
2018-07-28T01:21:04.792Z,8.67
2018-07-28T01:23:31.917Z,6.50
2018-07-28T01:25:58.745Z,6.80
2018-07-28T01:28:25.716Z,6.37
2018-07-28T01:30:52.548Z,6.27
2018-07-28T01:33:19.387Z,7.20
2018-07-28T01:35:46.214Z,6.40
2018-07-28T01:38:13.090Z,6.27
2018-07-28T01:40:39.922Z,6.70
2018-07-28T01:45:39.783Z,7.67
2018-07-28T01:48:07.098Z,7.97
2018-07-28T01:50:33.939Z,7.53
2018-07-28T01:53:00.775Z,7.03
2018-07-28T01:55:27.603Z,6.30
2018-07-28T01:57:54.632Z,6.00
2018-07-28T02:00:21.517Z,7.62
2018-07-28T02:02:48.377Z,6.83
2018-07-28T02:05:15.210Z,7.30
2018-07-28T02:07:42.037Z,6.57
2018-07-28T02:10:08.875Z,7.10
2018-07-28T02:12:35.752Z,7.00
2018-07-28T02:15:02.575Z,6.20
2018-07-28T02:17:29.463Z,10.03
2018-07-28T02:19:56.325Z,6.33
2018-07-28T02:22:23.165Z,7.37
2018-07-28T02:24:49.988Z,6.85
2018-07-28T02:27:16.847Z,7.33
2018-07-28T02:29:43.758Z,6.20
2018-07-28T02:32:10.833Z,7.20
2018-07-28T02:34:37.717Z,6.40
2018-07-28T02:37:04.513Z,6.93
2018-07-28T02:39:31.529Z,6.83
2018-07-28T02:41:58.459Z,9.73
2018-07-28T02:44:25.321Z,6.63
2018-07-28T02:46:52.131Z,6.27
2018-07-28T02:49:19.158Z,6.90
2018-07-28T02:51:45.987Z,7.03
2018-07-28T02:54:12.843Z,6.57
2018-07-28T02:56:39.691Z,6.78
2018-07-28T02:59:06.697Z,10.90
2018-07-28T03:01:33.537Z,7.37
2018-07-28T03:04:00.519Z,7.20
2018-07-28T03:06:27.333Z,7.20
2018-07-28T03:08:54.388Z,5.53
2018-07-28T03:11:21.208Z,6.10
2018-07-28T03:13:48.029Z,6.77
2018-07-28T03:16:14.867Z,6.43
2018-07-28T03:18:41.899Z,8.70
2018-07-28T03:21:08.702Z,6.40
2018-07-28T03:23:35.775Z,6.00
2018-07-28T03:26:02.672Z,7.17
2018-07-28T03:28:29.737Z,6.97
2018-07-28T03:30:56.589Z,6.67
2018-07-28T03:33:23.462Z,6.90
2018-07-28T03:35:50.334Z,7.20
2018-07-28T03:38:17.193Z,6.10
2018-07-28T03:40:44.075Z,8.10
2018-07-28T03:43:10.932Z,7.08
2018-07-28T03:45:37.762Z,6.90
2018-07-28T03:48:04.770Z,6.70
2018-07-28T03:50:31.603Z,7.33
2018-07-28T03:52:58.443Z,7.28
2018-07-28T03:55:25.264Z,6.40
2018-07-28T03:57:52.143Z,7.27
2018-07-28T04:00:18.985Z,7.10
2018-07-28T04:02:45.820Z,5.73
2018-07-28T04:05:13.098Z,6.70
2018-07-28T04:07:39.930Z,11.20
2018-07-28T04:10:06.783Z,7.03
2018-07-28T04:12:33.929Z,7.00
2018-07-28T04:15:00.926Z,6.20
2018-07-28T04:17:27.878Z,6.87
2018-07-28T04:19:54.776Z,6.53
2018-07-28T04:22:21.773Z,6.90
2018-07-28T04:24:48.650Z,6.47
2018-07-28T04:27:15.483Z,6.80
2018-07-28T04:29:42.359Z,6.60
2018-07-28T04:32:09.416Z,6.50
2018-07-28T04:34:36.217Z,6.63
2018-07-28T04:37:03.081Z,6.73
2018-07-28T04:39:29.910Z,8.00
2018-07-28T04:41:56.758Z,5.97
2018-07-28T04:44:23.682Z,6.65
2018-07-28T04:46:50.544Z,6.17
2018-07-28T04:49:17.479Z,7.22
2018-07-28T04:51:44.304Z,6.13
2018-07-28T04:54:11.146Z,6.50
2018-07-28T04:56:37.977Z,7.10
2018-07-28T04:59:04.864Z,5.93
2018-07-28T05:01:31.703Z,7.10
2018-07-28T05:03:58.536Z,6.93
2018-07-28T05:06:25.373Z,8.28
2018-07-28T05:08:52.390Z,6.40
2018-07-28T05:11:19.382Z,6.42
2018-07-28T05:13:46.475Z,6.90
2018-07-28T05:16:13.282Z,6.37
2018-07-28T05:18:40.217Z,6.12
2018-07-28T05:21:07.041Z,5.50
2018-07-28T05:23:33.886Z,6.50
2018-07-28T05:26:01.280Z,8.57
2018-07-28T05:28:28.201Z,11.60
2018-07-28T05:30:55.026Z,11.37
2018-07-28T05:33:21.859Z,10.28
2018-07-28T05:35:48.699Z,11.90
2018-07-28T05:38:15.571Z,10.20
2018-07-28T05:40:42.407Z,11.03
2018-07-28T05:43:09.260Z,15.57
2018-07-28T05:45:36.092Z,13.23
2018-07-28T05:48:02.938Z,13.70
2018-07-28T05:50:29.771Z,14.03
2018-07-28T05:52:56.599Z,11.53
2018-07-28T05:55:23.431Z,10.10
2018-07-28T05:57:50.328Z,13.50
2018-07-28T06:00:17.178Z,9.20
2018-07-28T06:02:44.001Z,13.93
2018-07-28T06:05:10.852Z,12.07
2018-07-28T06:07:37.686Z,22.23
2018-07-28T06:10:04.514Z,10.47
2018-07-28T06:12:31.331Z,13.07
2018-07-28T06:14:58.157Z,13.83
2018-07-28T06:17:24.997Z,11.83
2018-07-28T06:19:51.834Z,10.53
2018-07-28T06:22:18.694Z,9.55
2018-07-28T06:24:45.515Z,11.10
2018-07-28T06:27:12.333Z,9.93
2018-07-28T06:29:39.262Z,9.60
2018-07-28T06:32:06.117Z,10.90
2018-07-28T06:34:32.962Z,9.47
2018-07-28T06:36:59.824Z,12.27
2018-07-28T06:39:26.895Z,9.45
2018-07-28T06:41:53.943Z,10.40
2018-07-28T06:44:20.741Z,9.53
2018-07-28T06:46:47.572Z,9.27
2018-07-28T06:49:14.429Z,9.25
2018-07-28T06:51:41.675Z,8.63
2018-07-28T06:54:08.530Z,8.18
2018-07-28T06:56:35.366Z,9.35
2018-07-28T06:59:02.217Z,9.15
2018-07-28T07:01:29.059Z,8.07
2018-07-28T07:03:55.925Z,10.70
2018-07-28T07:06:22.772Z,8.07
2018-07-28T07:08:49.789Z,8.40
2018-07-28T07:11:16.683Z,8.70
2018-07-28T07:13:43.510Z,8.30
2018-07-28T07:16:10.350Z,7.13
2018-07-28T07:18:37.416Z,8.27
2018-07-28T07:21:04.240Z,10.13
2018-07-28T07:23:31.058Z,7.97
2018-07-28T07:25:57.898Z,7.30
2018-07-28T07:28:24.933Z,8.40
2018-07-28T07:30:51.762Z,9.03
2018-07-28T07:33:18.611Z,7.65
2018-07-28T07:35:45.461Z,8.28
2018-07-28T07:38:12.310Z,7.63
2018-07-28T07:40:39.218Z,8.13
2018-07-28T07:43:06.023Z,11.57
2018-07-28T07:45:32.870Z,7.93
2018-07-28T07:47:59.903Z,8.33
2018-07-28T07:50:26.810Z,8.40
2018-07-28T07:52:53.663Z,8.00
2018-07-28T07:55:20.478Z,7.20
2018-07-28T07:57:47.519Z,7.73
2018-07-28T08:00:15.105Z,7.90
2018-07-28T08:02:41.963Z,8.13
2018-07-28T08:05:09.452Z,6.77
2018-07-28T08:07:36.282Z,6.80
2018-07-28T08:10:03.109Z,11.73
2018-07-28T08:12:29.940Z,14.30
2018-07-28T08:14:56.785Z,9.00
2018-07-28T08:17:23.641Z,13.10
2018-07-28T08:19:50.490Z,11.27
2018-07-28T08:22:17.390Z,11.73
2018-07-28T08:24:44.217Z,16.97
2018-07-28T08:27:11.135Z,36.37
2018-07-28T08:29:38.064Z,31.77
2018-07-28T08:32:04.893Z,48.00
2018-07-28T08:34:31.713Z,26.70
2018-07-28T08:36:58.556Z,32.38
2018-07-28T08:39:25.422Z,25.83
2018-07-28T08:41:52.270Z,26.10
2018-07-28T08:44:19.099Z,26.73
2018-07-28T08:46:46.076Z,25.30
2018-07-28T08:49:13.095Z,25.07
2018-07-28T08:51:39.877Z,27.47
2018-07-28T08:54:06.770Z,26.57
2018-07-28T08:56:33.584Z,24.57
2018-07-28T08:59:00.831Z,24.25
2018-07-28T09:01:28.625Z,19.53
2018-07-28T09:03:55.466Z,22.40
2018-07-28T09:06:22.306Z,13.98
2018-07-28T09:08:49.185Z,25.72
2018-07-28T09:11:16.043Z,17.52
2018-07-28T09:13:42.892Z,12.50
2018-07-28T09:16:09.725Z,18.83
2018-07-28T09:18:36.915Z,15.37
2018-07-28T09:21:03.839Z,16.10
2018-07-28T09:23:30.682Z,19.57
2018-07-28T09:25:57.560Z,11.33
2018-07-28T09:28:24.658Z,19.87
2018-07-28T09:30:51.534Z,17.67
2018-07-28T09:33:19.748Z,12.37
2018-07-28T09:35:46.641Z,15.70
2018-07-28T09:38:13.566Z,11.80
2018-07-28T09:40:40.445Z,13.47
2018-07-28T09:43:07.366Z,11.70
2018-07-28T09:45:34.225Z,10.00
2018-07-28T09:48:01.497Z,15.23
2018-07-28T09:50:29.429Z,15.53
2018-07-28T09:52:56.261Z,11.53
2018-07-28T09:55:23.109Z,8.23
2018-07-28T09:57:50.221Z,10.18
2018-07-28T10:00:17.185Z,9.73
2018-07-28T10:02:44.035Z,11.57
2018-07-28T10:05:10.884Z,8.95
2018-07-28T10:07:37.748Z,9.60
2018-07-28T10:10:04.845Z,13.10
2018-07-28T10:12:31.697Z,11.60
2018-07-28T10:14:58.543Z,11.12
2018-07-28T10:17:25.525Z,21.40
2018-07-28T10:19:52.438Z,11.73
2018-07-28T10:22:19.783Z,14.13
2018-07-28T10:24:46.920Z,13.17
2018-07-28T10:27:14.945Z,17.67
2018-07-28T10:29:41.985Z,22.03
2018-07-28T10:32:08.839Z,8.60
2018-07-28T10:34:35.722Z,9.58
2018-07-28T10:37:03.480Z,8.05
2018-07-28T10:39:30.411Z,7.87
2018-07-28T10:41:57.219Z,8.20
2018-07-28T10:44:24.151Z,17.05
2018-07-28T10:46:51.408Z,8.43
2018-07-28T10:49:18.402Z,10.03
2018-07-28T10:51:45.432Z,8.40
2018-07-28T10:54:12.270Z,7.30
2018-07-28T10:56:39.183Z,8.95
2018-07-28T10:59:06.220Z,9.23
2018-07-28T11:01:33.665Z,10.53
2018-07-28T11:04:00.590Z,12.30
2018-07-28T11:06:27.537Z,10.03
2018-07-28T11:08:54.633Z,7.53
2018-07-28T11:11:21.549Z,9.27
2018-07-28T11:13:48.510Z,8.10
2018-07-28T11:16:15.432Z,18.87
2018-07-28T11:18:42.397Z,12.50
2018-07-28T11:21:09.318Z,10.83
2018-07-28T11:23:36.180Z,8.65
2018-07-28T11:26:03.099Z,8.10
2018-07-28T11:28:30.125Z,6.87
2018-07-28T11:30:56.961Z,12.23
2018-07-28T11:33:23.919Z,11.35
2018-07-28T11:35:50.683Z,12.58
2018-07-28T11:38:17.794Z,9.03
2018-07-28T11:40:44.818Z,10.08
2018-07-28T11:43:12.610Z,11.65
2018-07-28T11:45:40.888Z,11.60
2018-07-28T11:48:07.987Z,13.00
2018-07-28T11:50:34.773Z,10.07
2018-07-28T11:53:01.647Z,12.47
2018-07-28T11:55:28.539Z,20.80
2018-07-28T11:57:55.473Z,19.95
2018-07-28T12:00:22.316Z,17.90
2018-07-28T12:02:49.163Z,9.93
2018-07-28T12:05:16.270Z,13.60
2018-07-28T12:07:43.361Z,12.97
2018-07-28T12:10:10.275Z,10.23
2018-07-28T12:12:37.176Z,9.10
2018-07-28T12:15:04.126Z,8.60
2018-07-28T12:17:31.402Z,15.60
2018-07-28T12:20:04.093Z,8.30
2018-07-28T12:22:30.931Z,9.80
2018-07-28T12:24:57.781Z,12.58
2018-07-28T12:27:24.716Z,15.58
2018-07-28T12:29:51.699Z,10.55
2018-07-28T12:32:23.093Z,21.62
2018-07-28T12:34:50.349Z,10.40
2018-07-28T12:37:17.100Z,8.97
2018-07-28T12:39:44.073Z,9.70
2018-07-28T12:42:11.227Z,10.40
2018-07-28T12:44:38.078Z,8.03
2018-07-28T12:47:05.128Z,9.08
2018-07-28T12:49:32.153Z,8.70
2018-07-28T12:52:00.049Z,9.20
2018-07-28T12:54:26.888Z,10.33
2018-07-28T12:56:53.722Z,13.58
2018-07-28T12:59:20.766Z,18.55
2018-07-28T13:01:48.292Z,10.55
2018-07-28T13:04:15.136Z,11.33
2018-07-28T13:06:41.993Z,23.52
2018-07-28T13:09:08.903Z,13.45
2018-07-28T13:11:35.802Z,9.85
2018-07-28T13:16:35.367Z,8.77
2018-07-28T13:19:02.442Z,10.70
2018-07-28T13:21:29.272Z,8.53
2018-07-28T13:23:58.001Z,12.20
2018-07-28T13:26:24.967Z,12.23
2018-07-28T13:28:52.100Z,9.13
2018-07-28T13:31:21.341Z,14.87
2018-07-28T13:33:49.366Z,8.80
2018-07-28T13:36:16.473Z,23.33
2018-07-28T13:38:45.548Z,9.57
2018-07-28T13:41:12.414Z,8.70
2018-07-28T13:43:41.298Z,7.87
2018-07-28T13:48:46.847Z,10.17
2018-07-28T13:51:13.757Z,12.47
2018-07-28T13:53:40.846Z,12.43
2018-07-28T13:56:07.993Z,9.37
2018-07-28T13:58:35.205Z,9.60
2018-07-28T14:01:02.497Z,7.60
2018-07-28T14:03:33.254Z,10.93
2018-07-28T14:06:00.168Z,7.57
2018-07-28T14:08:27.151Z,9.03
2018-07-28T14:10:54.005Z,10.17
2018-07-28T14:13:20.884Z,8.83
2018-07-28T14:15:47.833Z,11.85
2018-07-28T14:18:15.060Z,8.08
2018-07-28T14:20:41.861Z,9.20
2018-07-28T14:23:08.709Z,8.23
2018-07-28T14:25:35.630Z,8.03
2018-07-28T14:28:02.488Z,7.78
2018-07-28T14:30:29.426Z,8.53
2018-07-28T14:32:56.303Z,10.17
2018-07-28T14:35:23.129Z,17.43
2018-07-28T14:37:50.071Z,7.20
2018-07-28T14:40:16.942Z,11.20
2018-07-28T14:42:43.807Z,16.23
2018-07-28T14:45:10.811Z,14.70
2018-07-28T14:47:37.698Z,12.80
2018-07-28T14:50:04.539Z,11.37
2018-07-28T14:52:31.440Z,9.60
2018-07-28T14:54:58.364Z,10.23
2018-07-28T14:57:25.258Z,11.43
2018-07-28T14:59:52.114Z,14.53
2018-07-28T15:02:19.133Z,9.58
2018-07-28T15:04:45.942Z,9.95
2018-07-28T15:07:12.808Z,13.90
2018-07-28T15:09:39.900Z,9.30
2018-07-28T15:12:06.844Z,13.28
2018-07-28T15:14:33.813Z,8.75
2018-07-28T15:17:00.682Z,8.18
2018-07-28T15:19:27.648Z,7.93
2018-07-28T15:21:54.526Z,9.10
2018-07-28T15:24:21.396Z,8.03
2018-07-28T15:26:48.790Z,15.53
2018-07-28T15:29:15.793Z,12.53
2018-07-28T15:31:42.653Z,11.87
2018-07-28T15:34:09.623Z,10.13
2018-07-28T15:36:36.489Z,11.83
2018-07-28T15:39:03.371Z,6.92
2018-07-28T15:41:30.236Z,11.33
2018-07-28T15:43:57.197Z,7.77
2018-07-28T15:46:24.062Z,8.40
2018-07-28T15:48:50.937Z,6.90
2018-07-28T15:51:17.818Z,7.47
2018-07-28T15:53:44.698Z,6.37
2018-07-28T15:56:11.626Z,11.37
2018-07-28T15:58:38.510Z,8.83
2018-07-28T16:01:05.475Z,7.63
2018-07-28T16:03:32.360Z,15.73
2018-07-28T16:05:59.340Z,10.30
2018-07-28T16:08:27.467Z,6.27
2018-07-28T16:10:54.339Z,7.13
2018-07-28T16:13:21.264Z,11.10
2018-07-28T16:15:48.142Z,6.10
2018-07-28T16:18:15.184Z,8.30
2018-07-28T16:20:42.271Z,8.97
2018-07-28T16:23:09.184Z,8.03
2018-07-28T16:25:36.097Z,6.97
2018-07-28T16:28:03.148Z,5.93
2018-07-28T16:30:30.195Z,9.20
2018-07-28T16:32:57.054Z,7.00
2018-07-28T16:35:23.949Z,7.40
2018-07-28T16:37:51.455Z,11.20
2018-07-28T16:40:18.380Z,7.77
2018-07-28T16:42:45.309Z,10.73
2018-07-28T16:45:12.229Z,11.10
2018-07-28T16:47:39.119Z,21.00
2018-07-28T16:50:05.980Z,8.17
2018-07-28T16:52:32.822Z,16.97
2018-07-28T16:54:59.764Z,15.53
2018-07-28T16:57:26.652Z,17.30
2018-07-28T16:59:53.459Z,9.80
2018-07-28T17:02:21.166Z,11.20
2018-07-28T17:04:48.000Z,11.40
2018-07-28T17:07:14.948Z,14.20
2018-07-28T17:09:41.906Z,9.90
2018-07-28T17:12:08.787Z,8.85
2018-07-28T17:14:35.694Z,8.67
2018-07-28T17:17:02.539Z,13.70
2018-07-28T17:19:29.526Z,11.40
2018-07-28T17:21:56.397Z,10.27
2018-07-28T17:24:23.301Z,13.03
2018-07-28T17:26:50.310Z,14.17
2018-07-28T17:29:17.260Z,9.60
2018-07-28T17:31:44.184Z,13.03
2018-07-28T17:34:11.040Z,10.10
2018-07-28T17:36:37.871Z,11.90
2018-07-28T17:39:04.911Z,12.80
2018-07-28T17:41:31.795Z,14.37
2018-07-28T17:43:58.694Z,18.10
2018-07-28T17:46:25.525Z,19.03
2018-07-28T17:48:52.366Z,40.80
2018-07-28T17:51:19.230Z,40.52
2018-07-28T17:53:46.106Z,36.75
2018-07-28T17:56:12.925Z,16.23
2018-07-28T17:58:39.942Z,15.93
2018-07-28T18:01:06.779Z,15.57
2018-07-28T18:03:33.606Z,22.27
2018-07-28T18:06:00.440Z,50.67
2018-07-28T18:08:27.325Z,30.70
2018-07-28T18:10:54.163Z,23.83
2018-07-28T18:13:21.130Z,16.45
2018-07-28T18:15:47.946Z,17.40
2018-07-28T18:18:14.921Z,14.83
2018-07-28T18:20:41.777Z,12.18
2018-07-28T18:23:08.615Z,18.47
2018-07-28T18:25:35.500Z,15.27
2018-07-28T18:28:02.472Z,10.73
2018-07-28T18:30:29.318Z,13.33
2018-07-28T18:32:56.171Z,11.57
2018-07-28T18:35:23.016Z,14.57
2018-07-28T18:37:50.050Z,30.00
2018-07-28T18:40:16.895Z,58.50
2018-07-28T18:42:43.782Z,45.43
2018-07-28T18:45:10.639Z,21.83
2018-07-28T18:47:37.485Z,18.57
2018-07-28T18:50:04.331Z,17.00
2018-07-28T18:52:31.155Z,15.63
2018-07-28T18:54:58.170Z,14.43
2018-07-28T18:57:25.025Z,17.87
2018-07-28T18:59:51.862Z,12.45
2018-07-28T19:02:18.734Z,13.03
2018-07-28T19:04:45.714Z,14.47
2018-07-28T19:07:12.578Z,13.37
2018-07-28T19:09:39.424Z,13.17
2018-07-28T19:12:06.249Z,13.53
2018-07-28T19:14:33.858Z,12.23
2018-07-28T19:17:00.725Z,13.00
2018-07-28T19:19:27.639Z,21.25
2018-07-28T19:21:54.686Z,11.57
2018-07-28T19:24:21.708Z,10.30
2018-07-28T19:26:48.515Z,15.40
2018-07-28T19:29:15.406Z,10.58
2018-07-28T19:31:42.249Z,11.43
2018-07-28T19:34:09.195Z,9.80
2018-07-28T19:36:36.035Z,10.17
2018-07-28T19:39:02.966Z,14.63
2018-07-28T19:41:29.793Z,10.67
2018-07-28T19:43:56.756Z,11.43
2018-07-28T19:46:23.668Z,14.47
2018-07-28T19:48:50.572Z,9.63
2018-07-28T19:51:17.455Z,13.43
2018-07-28T19:53:44.281Z,14.40
2018-07-28T19:56:11.191Z,10.95
2018-07-28T19:58:38.460Z,10.28
2018-07-28T20:01:05.209Z,10.97
2018-07-28T20:03:32.123Z,14.03
2018-07-28T20:05:59.105Z,13.95
2018-07-28T20:08:26.113Z,9.95
2018-07-28T20:10:53.826Z,9.57
2018-07-28T20:13:20.672Z,9.50
2018-07-28T20:15:47.586Z,10.80
2018-07-28T20:18:14.543Z,10.77
2018-07-28T20:20:41.597Z,11.63
2018-07-28T20:23:08.456Z,12.93
2018-07-28T20:25:35.579Z,14.65
2018-07-28T20:28:02.691Z,15.80
2018-07-28T20:30:30.133Z,10.08
2018-07-28T20:32:58.176Z,10.80
2018-07-28T20:35:25.019Z,8.10
2018-07-28T20:37:52.034Z,9.35
2018-07-28T20:40:19.324Z,9.10
2018-07-28T20:42:46.163Z,9.00
2018-07-28T20:45:13.001Z,10.05
2018-07-28T20:47:39.927Z,13.30
2018-07-28T20:50:06.786Z,9.35
2018-07-28T20:52:33.754Z,9.57
2018-07-28T20:55:00.605Z,8.30
2018-07-28T20:57:27.465Z,9.40
2018-07-28T20:59:54.324Z,12.13
2018-07-28T21:02:21.748Z,9.83
2018-07-28T21:04:48.650Z,8.58
2018-07-28T21:07:15.476Z,10.38
2018-07-28T21:09:42.549Z,10.00
2018-07-28T21:12:09.404Z,8.90
2018-07-28T21:14:36.207Z,7.80
2018-07-28T21:17:03.292Z,8.37
2018-07-28T21:19:30.311Z,8.53
2018-07-28T21:21:57.138Z,9.60
2018-07-28T21:24:23.963Z,8.63
2018-07-28T21:26:50.790Z,8.40
2018-07-28T21:29:17.672Z,10.77
2018-07-28T21:31:44.685Z,8.93
2018-07-28T21:34:11.487Z,7.87
2018-07-28T21:36:38.351Z,8.30
2018-07-28T21:39:05.236Z,8.73
2018-07-28T21:41:32.098Z,10.20
2018-07-28T21:43:58.942Z,8.10
2018-07-28T21:46:25.785Z,7.40
2018-07-28T21:48:52.857Z,7.97
2018-07-28T21:51:19.722Z,8.80
2018-07-28T21:53:46.568Z,8.27
2018-07-28T21:56:13.495Z,7.63
2018-07-28T21:58:40.762Z,9.23
2018-07-28T22:01:07.495Z,7.53
2018-07-28T22:03:34.375Z,8.20
2018-07-28T22:06:01.210Z,8.53
2018-07-28T22:08:31.728Z,9.20
2018-07-28T22:10:58.658Z,9.50
2018-07-28T22:13:25.492Z,7.60
2018-07-28T22:15:52.345Z,7.65
2018-07-28T22:18:20.253Z,9.70
2018-07-28T22:20:47.087Z,7.87
2018-07-28T22:23:13.919Z,7.70
2018-07-28T22:25:40.747Z,9.88
2018-07-28T22:28:07.668Z,7.57
2018-07-28T22:30:34.478Z,8.80
2018-07-28T22:33:01.514Z,6.87
2018-07-28T22:35:28.333Z,6.87
2018-07-28T22:37:55.166Z,7.17
2018-07-28T22:40:21.990Z,7.43
2018-07-28T22:42:48.816Z,7.77
2018-07-28T22:45:15.713Z,9.63
2018-07-28T22:47:42.569Z,9.50
2018-07-28T22:50:09.378Z,7.67
2018-07-28T22:52:36.207Z,7.57
2018-07-28T22:55:03.040Z,8.33
2018-07-28T22:57:30.276Z,7.90
2018-07-28T22:59:57.074Z,7.93
2018-07-28T23:02:23.990Z,7.60
2018-07-28T23:04:50.774Z,8.27
2018-07-28T23:07:17.613Z,7.23
2018-07-28T23:09:44.437Z,8.00
2018-07-28T23:12:11.269Z,7.50
2018-07-28T23:14:38.200Z,6.60
2018-07-28T23:17:05.748Z,7.57
2018-07-28T23:19:32.595Z,10.10
2018-07-28T23:22:00.671Z,8.00
2018-07-28T23:24:27.475Z,7.00
2018-07-28T23:26:54.317Z,9.90
2018-07-28T23:29:21.151Z,8.00
2018-07-28T23:31:47.991Z,7.93
2018-07-28T23:34:14.889Z,7.95
2018-07-28T23:36:41.739Z,7.40
2018-07-28T23:39:08.737Z,9.65
2018-07-28T23:41:35.596Z,7.12
2018-07-28T23:44:04.724Z,7.97
2018-07-28T23:46:32.113Z,7.93
2018-07-28T23:48:58.958Z,6.70
2018-07-28T23:51:25.782Z,8.10
2018-07-28T23:53:52.623Z,8.20
2018-07-28T23:56:19.462Z,6.97
2018-07-28T23:58:46.337Z,8.07
